sensor_id;sensor_type;location;lat;lon;timestamp;P1;durP1;ratioP1;P2;durP2;ratioP2
60665;SDS011;59128;44.642;21.188;2023-04-08T00:01:10;133.85;;;90.53;;
60665;SDS011;59128;44.642;21.188;2023-04-08T00:03:36;179.93;;;113.70;;
60665;SDS011;59128;44.642;21.188;2023-04-08T00:06:03;129.32;;;90.43;;
60665;SDS011;59128;44.642;21.188;2023-04-08T00:08:29;226.23;;;137.73;;
60665;SDS011;59128;44.642;21.188;2023-04-08T00:10:55;158.30;;;105.65;;
60665;SDS011;59128;44.642;21.188;2023-04-08T00:13:21;96.95;;;72.30;;
60665;SDS011;59128;44.642;21.188;2023-04-08T00:15:47;138.90;;;99.28;;
60665;SDS011;59128;44.642;21.188;2023-04-08T00:18:13;73.32;;;59.90;;
60665;SDS011;59128;44.642;21.188;2023-04-08T00:20:41;48.63;;;43.33;;
60665;SDS011;59128;44.642;21.188;2023-04-08T00:23:07;46.42;;;41.35;;
60665;SDS011;59128;44.642;21.188;2023-04-08T00:25:33;46.53;;;41.50;;
60665;SDS011;59128;44.642;21.188;2023-04-08T00:27:59;59.90;;;48.83;;
60665;SDS011;59128;44.642;21.188;2023-04-08T00:30:25;86.57;;;63.92;;
60665;SDS011;59128;44.642;21.188;2023-04-08T00:32:52;77.93;;;56.97;;
60665;SDS011;59128;44.642;21.188;2023-04-08T00:35:18;71.68;;;54.50;;
60665;SDS011;59128;44.642;21.188;2023-04-08T00:37:44;63.28;;;52.78;;
60665;SDS011;59128;44.642;21.188;2023-04-08T00:40:10;51.90;;;44.50;;
60665;SDS011;59128;44.642;21.188;2023-04-08T00:42:36;47.60;;;41.25;;
60665;SDS011;59128;44.642;21.188;2023-04-08T00:45:03;58.10;;;47.75;;
60665;SDS011;59128;44.642;21.188;2023-04-08T00:47:29;86.60;;;65.17;;
60665;SDS011;59128;44.642;21.188;2023-04-08T00:49:55;125.20;;;91.93;;
60665;SDS011;59128;44.642;21.188;2023-04-08T00:52:21;40.30;;;36.10;;
60665;SDS011;59128;44.642;21.188;2023-04-08T00:54:47;57.72;;;48.15;;
60665;SDS011;59128;44.642;21.188;2023-04-08T00:57:13;43.07;;;38.47;;
60665;SDS011;59128;44.642;21.188;2023-04-08T00:59:40;44.92;;;40.03;;
60665;SDS011;59128;44.642;21.188;2023-04-08T01:09:54;42.22;;;37.70;;
60665;SDS011;59128;44.642;21.188;2023-04-08T01:12:22;47.65;;;40.10;;
60665;SDS011;59128;44.642;21.188;2023-04-08T01:14:51;73.13;;;57.40;;
60665;SDS011;59128;44.642;21.188;2023-04-08T01:17:20;77.53;;;61.40;;
60665;SDS011;59128;44.642;21.188;2023-04-08T01:19:47;92.30;;;71.85;;
60665;SDS011;59128;44.642;21.188;2023-04-08T01:24:49;78.95;;;62.03;;
60665;SDS011;59128;44.642;21.188;2023-04-08T01:27:15;65.93;;;53.47;;
60665;SDS011;59128;44.642;21.188;2023-04-08T01:29:42;169.93;;;114.60;;
60665;SDS011;59128;44.642;21.188;2023-04-08T01:32:09;163.93;;;113.03;;
60665;SDS011;59128;44.642;21.188;2023-04-08T01:34:37;158.73;;;109.80;;
60665;SDS011;59128;44.642;21.188;2023-04-08T01:37:03;91.28;;;70.57;;
60665;SDS011;59128;44.642;21.188;2023-04-08T01:39:31;103.22;;;77.60;;
60665;SDS011;59128;44.642;21.188;2023-04-08T01:41:58;102.05;;;79.20;;
60665;SDS011;59128;44.642;21.188;2023-04-08T01:44:24;59.95;;;48.78;;
60665;SDS011;59128;44.642;21.188;2023-04-08T01:46:51;89.13;;;68.43;;
60665;SDS011;59128;44.642;21.188;2023-04-08T01:49:18;84.05;;;65.18;;
60665;SDS011;59128;44.642;21.188;2023-04-08T01:51:45;69.93;;;55.67;;
60665;SDS011;59128;44.642;21.188;2023-04-08T01:54:11;78.07;;;64.90;;
60665;SDS011;59128;44.642;21.188;2023-04-08T01:56:38;84.60;;;69.83;;
60665;SDS011;59128;44.642;21.188;2023-04-08T01:59:07;77.25;;;63.70;;
60665;SDS011;59128;44.642;21.188;2023-04-08T02:01:34;74.72;;;60.38;;
60665;SDS011;59128;44.642;21.188;2023-04-08T02:04:01;92.90;;;75.03;;
60665;SDS011;59128;44.642;21.188;2023-04-08T02:06:28;73.73;;;60.13;;
60665;SDS011;59128;44.642;21.188;2023-04-08T02:08:55;64.77;;;51.83;;
60665;SDS011;59128;44.642;21.188;2023-04-08T02:11:22;71.20;;;57.28;;
60665;SDS011;59128;44.642;21.188;2023-04-08T02:13:49;53.80;;;46.28;;
60665;SDS011;59128;44.642;21.188;2023-04-08T02:16:17;53.47;;;46.90;;
60665;SDS011;59128;44.642;21.188;2023-04-08T02:18:45;55.17;;;46.50;;
60665;SDS011;59128;44.642;21.188;2023-04-08T02:21:13;55.67;;;45.85;;
60665;SDS011;59128;44.642;21.188;2023-04-08T02:23:40;47.15;;;41.95;;
60665;SDS011;59128;44.642;21.188;2023-04-08T02:26:08;40.92;;;36.42;;
60665;SDS011;59128;44.642;21.188;2023-04-08T02:28:38;42.78;;;38.15;;
60665;SDS011;59128;44.642;21.188;2023-04-08T02:31:04;44.50;;;38.93;;
60665;SDS011;59128;44.642;21.188;2023-04-08T02:33:30;56.22;;;45.42;;
60665;SDS011;59128;44.642;21.188;2023-04-08T02:35:58;61.67;;;48.80;;
60665;SDS011;59128;44.642;21.188;2023-04-08T02:38:25;62.53;;;48.80;;
60665;SDS011;59128;44.642;21.188;2023-04-08T02:40:53;66.75;;;51.67;;
60665;SDS011;59128;44.642;21.188;2023-04-08T02:43:20;65.85;;;49.47;;
60665;SDS011;59128;44.642;21.188;2023-04-08T02:45:46;60.38;;;47.15;;
60665;SDS011;59128;44.642;21.188;2023-04-08T02:48:12;66.13;;;49.20;;
60665;SDS011;59128;44.642;21.188;2023-04-08T02:50:38;59.65;;;45.80;;
60665;SDS011;59128;44.642;21.188;2023-04-08T02:53:05;54.43;;;43.23;;
60665;SDS011;59128;44.642;21.188;2023-04-08T02:55:31;66.28;;;47.40;;
60665;SDS011;59128;44.642;21.188;2023-04-08T02:57:57;61.60;;;47.63;;
60665;SDS011;59128;44.642;21.188;2023-04-08T03:00:23;59.85;;;45.42;;
60665;SDS011;59128;44.642;21.188;2023-04-08T03:02:49;56.13;;;42.58;;
60665;SDS011;59128;44.642;21.188;2023-04-08T03:05:15;62.10;;;46.17;;
60665;SDS011;59128;44.642;21.188;2023-04-08T03:07:41;49.42;;;41.53;;
60665;SDS011;59128;44.642;21.188;2023-04-08T03:10:07;53.35;;;43.85;;
60665;SDS011;59128;44.642;21.188;2023-04-08T03:12:33;95.13;;;76.00;;
60665;SDS011;59128;44.642;21.188;2023-04-08T03:14:59;81.60;;;67.70;;
60665;SDS011;59128;44.642;21.188;2023-04-08T03:17:25;61.50;;;52.10;;
60665;SDS011;59128;44.642;21.188;2023-04-08T03:19:51;65.75;;;51.22;;
60665;SDS011;59128;44.642;21.188;2023-04-08T03:22:18;61.55;;;48.03;;
60665;SDS011;59128;44.642;21.188;2023-04-08T03:24:44;64.55;;;50.20;;
60665;SDS011;59128;44.642;21.188;2023-04-08T03:27:10;61.10;;;46.95;;
60665;SDS011;59128;44.642;21.188;2023-04-08T03:29:37;79.93;;;56.50;;
60665;SDS011;59128;44.642;21.188;2023-04-08T03:32:03;84.50;;;57.28;;
60665;SDS011;59128;44.642;21.188;2023-04-08T03:34:30;83.20;;;58.30;;
60665;SDS011;59128;44.642;21.188;2023-04-08T03:36:56;65.80;;;47.90;;
60665;SDS011;59128;44.642;21.188;2023-04-08T03:39:22;72.95;;;53.67;;
60665;SDS011;59128;44.642;21.188;2023-04-08T03:41:48;51.17;;;41.80;;
60665;SDS011;59128;44.642;21.188;2023-04-08T03:44:14;51.83;;;41.67;;
60665;SDS011;59128;44.642;21.188;2023-04-08T03:46:40;53.40;;;41.33;;
60665;SDS011;59128;44.642;21.188;2023-04-08T03:49:06;48.88;;;38.55;;
60665;SDS011;59128;44.642;21.188;2023-04-08T03:51:32;44.80;;;36.92;;
60665;SDS011;59128;44.642;21.188;2023-04-08T03:53:58;41.10;;;34.45;;
60665;SDS011;59128;44.642;21.188;2023-04-08T03:56:24;42.35;;;35.13;;
60665;SDS011;59128;44.642;21.188;2023-04-08T03:58:50;40.13;;;34.15;;
60665;SDS011;59128;44.642;21.188;2023-04-08T04:01:16;42.50;;;36.65;;
60665;SDS011;59128;44.642;21.188;2023-04-08T04:03:42;42.55;;;36.05;;
60665;SDS011;59128;44.642;21.188;2023-04-08T04:06:08;39.85;;;34.00;;
60665;SDS011;59128;44.642;21.188;2023-04-08T04:08:34;41.90;;;36.95;;
60665;SDS011;59128;44.642;21.188;2023-04-08T04:11:00;38.70;;;34.50;;
60665;SDS011;59128;44.642;21.188;2023-04-08T04:13:26;40.07;;;33.70;;
60665;SDS011;59128;44.642;21.188;2023-04-08T04:15:52;40.28;;;34.55;;
60665;SDS011;59128;44.642;21.188;2023-04-08T04:18:18;40.97;;;35.73;;
60665;SDS011;59128;44.642;21.188;2023-04-08T04:20:44;44.25;;;37.70;;
60665;SDS011;59128;44.642;21.188;2023-04-08T04:23:10;41.25;;;35.28;;
60665;SDS011;59128;44.642;21.188;2023-04-08T04:25:39;35.63;;;31.70;;
60665;SDS011;59128;44.642;21.188;2023-04-08T04:28:05;37.72;;;32.78;;
60665;SDS011;59128;44.642;21.188;2023-04-08T04:30:35;44.35;;;37.28;;
60665;SDS011;59128;44.642;21.188;2023-04-08T04:33:01;38.85;;;33.90;;
60665;SDS011;59128;44.642;21.188;2023-04-08T04:35:27;37.70;;;33.22;;
60665;SDS011;59128;44.642;21.188;2023-04-08T04:37:53;37.20;;;32.90;;
60665;SDS011;59128;44.642;21.188;2023-04-08T04:40:19;38.35;;;33.15;;
60665;SDS011;59128;44.642;21.188;2023-04-08T04:42:45;35.63;;;31.83;;
60665;SDS011;59128;44.642;21.188;2023-04-08T04:45:11;34.90;;;31.10;;
60665;SDS011;59128;44.642;21.188;2023-04-08T04:47:37;37.13;;;32.35;;
60665;SDS011;59128;44.642;21.188;2023-04-08T04:50:03;35.10;;;31.30;;
60665;SDS011;59128;44.642;21.188;2023-04-08T04:52:29;35.80;;;31.57;;
60665;SDS011;59128;44.642;21.188;2023-04-08T04:54:56;34.80;;;31.05;;
60665;SDS011;59128;44.642;21.188;2023-04-08T04:57:22;35.20;;;31.40;;
60665;SDS011;59128;44.642;21.188;2023-04-08T04:59:48;36.42;;;30.98;;
60665;SDS011;59128;44.642;21.188;2023-04-08T05:02:14;37.70;;;33.13;;
60665;SDS011;59128;44.642;21.188;2023-04-08T05:04:40;37.15;;;33.05;;
60665;SDS011;59128;44.642;21.188;2023-04-08T05:07:06;38.38;;;34.17;;
60665;SDS011;59128;44.642;21.188;2023-04-08T05:09:32;39.83;;;33.75;;
60665;SDS011;59128;44.642;21.188;2023-04-08T05:11:58;38.15;;;33.42;;
60665;SDS011;59128;44.642;21.188;2023-04-08T05:14:24;36.55;;;32.03;;
60665;SDS011;59128;44.642;21.188;2023-04-08T05:16:53;34.57;;;30.67;;
60665;SDS011;59128;44.642;21.188;2023-04-08T05:19:19;37.38;;;32.42;;
60665;SDS011;59128;44.642;21.188;2023-04-08T05:21:45;38.80;;;34.30;;
60665;SDS011;59128;44.642;21.188;2023-04-08T05:24:11;40.97;;;34.87;;
60665;SDS011;59128;44.642;21.188;2023-04-08T05:26:37;44.25;;;37.22;;
60665;SDS011;59128;44.642;21.188;2023-04-08T05:29:03;48.58;;;39.80;;
60665;SDS011;59128;44.642;21.188;2023-04-08T05:31:29;44.67;;;37.20;;
60665;SDS011;59128;44.642;21.188;2023-04-08T05:33:55;46.50;;;37.55;;
60665;SDS011;59128;44.642;21.188;2023-04-08T05:36:21;42.30;;;34.83;;
60665;SDS011;59128;44.642;21.188;2023-04-08T05:38:47;40.15;;;33.90;;
60665;SDS011;59128;44.642;21.188;2023-04-08T05:41:13;40.57;;;33.00;;
60665;SDS011;59128;44.642;21.188;2023-04-08T05:43:39;36.17;;;32.20;;
60665;SDS011;59128;44.642;21.188;2023-04-08T05:46:06;39.25;;;34.28;;
60665;SDS011;59128;44.642;21.188;2023-04-08T05:48:32;44.28;;;37.55;;
60665;SDS011;59128;44.642;21.188;2023-04-08T05:50:58;47.80;;;40.17;;
60665;SDS011;59128;44.642;21.188;2023-04-08T05:53:24;43.83;;;37.80;;
60665;SDS011;59128;44.642;21.188;2023-04-08T05:55:50;39.75;;;34.13;;
60665;SDS011;59128;44.642;21.188;2023-04-08T05:58:16;35.03;;;31.33;;
60665;SDS011;59128;44.642;21.188;2023-04-08T06:00:42;36.47;;;32.50;;
60665;SDS011;59128;44.642;21.188;2023-04-08T06:03:08;33.65;;;29.95;;
60665;SDS011;59128;44.642;21.188;2023-04-08T06:05:34;37.42;;;32.65;;
60665;SDS011;59128;44.642;21.188;2023-04-08T06:08:00;30.00;;;26.80;;
60665;SDS011;59128;44.642;21.188;2023-04-08T06:10:26;34.15;;;30.13;;
60665;SDS011;59128;44.642;21.188;2023-04-08T06:12:52;35.92;;;30.15;;
60665;SDS011;59128;44.642;21.188;2023-04-08T06:15:18;36.00;;;30.90;;
60665;SDS011;59128;44.642;21.188;2023-04-08T06:17:45;53.63;;;42.17;;
60665;SDS011;59128;44.642;21.188;2023-04-08T06:20:11;45.55;;;38.15;;
60665;SDS011;59128;44.642;21.188;2023-04-08T06:22:37;39.80;;;34.15;;
60665;SDS011;59128;44.642;21.188;2023-04-08T06:25:03;38.33;;;33.23;;
60665;SDS011;59128;44.642;21.188;2023-04-08T06:27:29;37.85;;;33.58;;
60665;SDS011;59128;44.642;21.188;2023-04-08T06:29:55;33.33;;;29.93;;
60665;SDS011;59128;44.642;21.188;2023-04-08T06:32:22;30.15;;;26.95;;
60665;SDS011;59128;44.642;21.188;2023-04-08T06:34:48;37.70;;;31.17;;
60665;SDS011;59128;44.642;21.188;2023-04-08T06:37:14;34.30;;;30.48;;
60665;SDS011;59128;44.642;21.188;2023-04-08T06:39:40;38.38;;;34.28;;
60665;SDS011;59128;44.642;21.188;2023-04-08T06:42:06;36.25;;;32.38;;
60665;SDS011;59128;44.642;21.188;2023-04-08T06:44:32;39.40;;;34.38;;
60665;SDS011;59128;44.642;21.188;2023-04-08T06:46:58;39.67;;;34.28;;
60665;SDS011;59128;44.642;21.188;2023-04-08T06:49:24;40.53;;;35.15;;
60665;SDS011;59128;44.642;21.188;2023-04-08T06:51:51;35.40;;;31.38;;
60665;SDS011;59128;44.642;21.188;2023-04-08T06:54:17;36.53;;;32.55;;
60665;SDS011;59128;44.642;21.188;2023-04-08T06:56:43;37.25;;;33.25;;
60665;SDS011;59128;44.642;21.188;2023-04-08T06:59:09;33.33;;;29.88;;
60665;SDS011;59128;44.642;21.188;2023-04-08T07:01:35;33.33;;;29.38;;
60665;SDS011;59128;44.642;21.188;2023-04-08T07:04:01;33.60;;;29.85;;
60665;SDS011;59128;44.642;21.188;2023-04-08T07:06:27;27.52;;;24.63;;
60665;SDS011;59128;44.642;21.188;2023-04-08T07:08:53;31.03;;;27.73;;
60665;SDS011;59128;44.642;21.188;2023-04-08T07:11:19;29.30;;;26.15;;
60665;SDS011;59128;44.642;21.188;2023-04-08T07:13:45;27.48;;;24.67;;
60665;SDS011;59128;44.642;21.188;2023-04-08T07:16:11;26.23;;;23.43;;
60665;SDS011;59128;44.642;21.188;2023-04-08T07:18:37;48.53;;;41.90;;
60665;SDS011;59128;44.642;21.188;2023-04-08T07:21:05;34.63;;;26.92;;
60665;SDS011;59128;44.642;21.188;2023-04-08T07:23:31;27.07;;;23.90;;
60665;SDS011;59128;44.642;21.188;2023-04-08T07:26:00;26.92;;;24.13;;
60665;SDS011;59128;44.642;21.188;2023-04-08T07:28:27;23.50;;;21.17;;
60665;SDS011;59128;44.642;21.188;2023-04-08T07:30:53;23.25;;;20.80;;
60665;SDS011;59128;44.642;21.188;2023-04-08T07:33:19;21.25;;;19.05;;
60665;SDS011;59128;44.642;21.188;2023-04-08T07:35:45;23.55;;;21.10;;
60665;SDS011;59128;44.642;21.188;2023-04-08T07:38:11;22.05;;;19.85;;
60665;SDS011;59128;44.642;21.188;2023-04-08T07:40:37;24.50;;;22.00;;
60665;SDS011;59128;44.642;21.188;2023-04-08T07:43:03;35.83;;;32.25;;
60665;SDS011;59128;44.642;21.188;2023-04-08T07:45:29;24.02;;;21.52;;
60665;SDS011;59128;44.642;21.188;2023-04-08T07:47:55;28.73;;;25.67;;
60665;SDS011;59128;44.642;21.188;2023-04-08T07:50:21;22.05;;;19.95;;
60665;SDS011;59128;44.642;21.188;2023-04-08T07:52:47;26.10;;;23.48;;
60665;SDS011;59128;44.642;21.188;2023-04-08T07:55:13;21.27;;;19.20;;
60665;SDS011;59128;44.642;21.188;2023-04-08T07:57:39;43.75;;;24.67;;
60665;SDS011;59128;44.642;21.188;2023-04-08T08:00:05;26.77;;;24.08;;
60665;SDS011;59128;44.642;21.188;2023-04-08T08:02:32;20.88;;;18.88;;
60665;SDS011;59128;44.642;21.188;2023-04-08T08:04:59;20.52;;;18.50;;
60665;SDS011;59128;44.642;21.188;2023-04-08T08:07:27;27.33;;;24.52;;
60665;SDS011;59128;44.642;21.188;2023-04-08T08:09:53;31.02;;;27.15;;
60665;SDS011;59128;44.642;21.188;2023-04-08T08:12:19;24.42;;;21.92;;
60665;SDS011;59128;44.642;21.188;2023-04-08T08:14:45;33.43;;;29.03;;
60665;SDS011;59128;44.642;21.188;2023-04-08T08:17:11;21.02;;;19.02;;
60665;SDS011;59128;44.642;21.188;2023-04-08T08:19:37;42.05;;;38.17;;
60665;SDS011;59128;44.642;21.188;2023-04-08T08:22:03;21.60;;;19.63;;
60665;SDS011;59128;44.642;21.188;2023-04-08T08:24:29;18.48;;;16.67;;
60665;SDS011;59128;44.642;21.188;2023-04-08T08:26:55;25.23;;;22.73;;
60665;SDS011;59128;44.642;21.188;2023-04-08T08:29:21;20.83;;;18.88;;
60665;SDS011;59128;44.642;21.188;2023-04-08T08:31:47;18.88;;;17.08;;
60665;SDS011;59128;44.642;21.188;2023-04-08T08:34:13;19.92;;;18.02;;
60665;SDS011;59128;44.642;21.188;2023-04-08T08:36:40;20.00;;;18.13;;
60665;SDS011;59128;44.642;21.188;2023-04-08T08:39:06;19.98;;;18.02;;
60665;SDS011;59128;44.642;21.188;2023-04-08T08:41:32;19.00;;;17.20;;
60665;SDS011;59128;44.642;21.188;2023-04-08T08:44:04;19.55;;;17.55;;
60665;SDS011;59128;44.642;21.188;2023-04-08T08:46:30;18.17;;;16.33;;
60665;SDS011;59128;44.642;21.188;2023-04-08T08:48:56;25.60;;;22.90;;
60665;SDS011;59128;44.642;21.188;2023-04-08T08:51:23;20.15;;;16.33;;
60665;SDS011;59128;44.642;21.188;2023-04-08T08:53:48;20.33;;;18.00;;
60665;SDS011;59128;44.642;21.188;2023-04-08T08:56:14;36.17;;;32.88;;
60665;SDS011;59128;44.642;21.188;2023-04-08T08:58:40;16.80;;;14.90;;
60665;SDS011;59128;44.642;21.188;2023-04-08T09:01:40;21.63;;;19.40;;
60665;SDS011;59128;44.642;21.188;2023-04-08T09:04:18;25.33;;;22.58;;
60665;SDS011;59128;44.642;21.188;2023-04-08T09:06:46;21.73;;;19.45;;
60665;SDS011;59128;44.642;21.188;2023-04-08T09:09:14;19.35;;;17.45;;
60665;SDS011;59128;44.642;21.188;2023-04-08T09:11:41;19.55;;;17.55;;
60665;SDS011;59128;44.642;21.188;2023-04-08T09:14:17;19.50;;;17.52;;
60665;SDS011;59128;44.642;21.188;2023-04-08T09:16:43;18.80;;;17.00;;
60665;SDS011;59128;44.642;21.188;2023-04-08T09:19:09;19.13;;;17.23;;
60665;SDS011;59128;44.642;21.188;2023-04-08T09:21:36;18.08;;;16.30;;
60665;SDS011;59128;44.642;21.188;2023-04-08T09:24:04;18.02;;;16.20;;
60665;SDS011;59128;44.642;21.188;2023-04-08T09:26:30;23.52;;;21.23;;
60665;SDS011;59128;44.642;21.188;2023-04-08T09:31:26;21.02;;;18.92;;
60665;SDS011;59128;44.642;21.188;2023-04-08T09:33:53;24.70;;;22.20;;
60665;SDS011;59128;44.642;21.188;2023-04-08T09:36:19;33.13;;;30.10;;
60665;SDS011;59128;44.642;21.188;2023-04-08T09:38:45;20.13;;;18.13;;
60665;SDS011;59128;44.642;21.188;2023-04-08T09:41:12;16.88;;;15.23;;
60665;SDS011;59128;44.642;21.188;2023-04-08T09:43:44;17.25;;;15.55;;
60665;SDS011;59128;44.642;21.188;2023-04-08T09:46:17;52.80;;;39.20;;
60665;SDS011;59128;44.642;21.188;2023-04-08T09:48:51;20.52;;;18.42;;
60665;SDS011;59128;44.642;21.188;2023-04-08T09:51:19;71.00;;;50.63;;
60665;SDS011;59128;44.642;21.188;2023-04-08T09:53:49;15.75;;;14.07;;
60665;SDS011;59128;44.642;21.188;2023-04-08T09:56:17;16.55;;;14.98;;
60665;SDS011;59128;44.642;21.188;2023-04-08T09:58:51;32.80;;;25.35;;
60665;SDS011;59128;44.642;21.188;2023-04-08T10:01:24;40.03;;;32.95;;
60665;SDS011;59128;44.642;21.188;2023-04-08T10:03:53;17.55;;;15.82;;
60665;SDS011;59128;44.642;21.188;2023-04-08T10:06:21;14.30;;;12.90;;
60665;SDS011;59128;44.642;21.188;2023-04-08T10:08:47;17.25;;;15.55;;
60665;SDS011;59128;44.642;21.188;2023-04-08T10:11:13;20.38;;;18.13;;
60665;SDS011;59128;44.642;21.188;2023-04-08T10:13:40;62.60;;;43.40;;
60665;SDS011;59128;44.642;21.188;2023-04-08T10:18:41;39.58;;;29.13;;
60665;SDS011;59128;44.642;21.188;2023-04-08T10:23:56;16.65;;;15.05;;
60665;SDS011;59128;44.642;21.188;2023-04-08T10:26:51;18.15;;;16.25;;
60665;SDS011;59128;44.642;21.188;2023-04-08T10:31:42;17.60;;;15.80;;
60665;SDS011;59128;44.642;21.188;2023-04-08T10:34:15;18.70;;;16.70;;
60665;SDS011;59128;44.642;21.188;2023-04-08T10:36:42;16.08;;;14.48;;
60665;SDS011;59128;44.642;21.188;2023-04-08T10:39:08;20.00;;;16.05;;
60665;SDS011;59128;44.642;21.188;2023-04-08T10:41:37;26.80;;;21.48;;
60665;SDS011;59128;44.642;21.188;2023-04-08T10:44:14;19.88;;;17.25;;
60665;SDS011;59128;44.642;21.188;2023-04-08T10:46:40;39.10;;;31.50;;
60665;SDS011;59128;44.642;21.188;2023-04-08T10:49:07;35.03;;;29.80;;
60665;SDS011;59128;44.642;21.188;2023-04-08T10:51:33;27.13;;;23.55;;
60665;SDS011;59128;44.642;21.188;2023-04-08T10:54:08;23.73;;;21.30;;
60665;SDS011;59128;44.642;21.188;2023-04-08T10:56:35;33.53;;;28.27;;
60665;SDS011;59128;44.642;21.188;2023-04-08T10:59:01;26.50;;;22.70;;
60665;SDS011;59128;44.642;21.188;2023-04-08T11:01:36;35.53;;;28.23;;
60665;SDS011;59128;44.642;21.188;2023-04-08T11:04:06;54.00;;;39.53;;
60665;SDS011;59128;44.642;21.188;2023-04-08T11:06:32;47.92;;;35.33;;
60665;SDS011;59128;44.642;21.188;2023-04-08T11:09:02;41.28;;;31.88;;
60665;SDS011;59128;44.642;21.188;2023-04-08T11:11:29;57.55;;;40.85;;
60665;SDS011;59128;44.642;21.188;2023-04-08T11:13:55;75.30;;;59.28;;
60665;SDS011;59128;44.642;21.188;2023-04-08T11:16:21;78.90;;;57.67;;
60665;SDS011;59128;44.642;21.188;2023-04-08T11:18:47;56.55;;;41.42;;
60665;SDS011;59128;44.642;21.188;2023-04-08T11:21:15;40.72;;;31.58;;
60665;SDS011;59128;44.642;21.188;2023-04-08T11:23:41;52.03;;;38.33;;
60665;SDS011;59128;44.642;21.188;2023-04-08T11:26:07;54.85;;;40.60;;
60665;SDS011;59128;44.642;21.188;2023-04-08T11:28:34;42.55;;;32.33;;
60665;SDS011;59128;44.642;21.188;2023-04-08T11:31:00;38.13;;;30.20;;
60665;SDS011;59128;44.642;21.188;2023-04-08T11:33:31;32.92;;;25.95;;
60665;SDS011;59128;44.642;21.188;2023-04-08T11:35:57;28.35;;;24.83;;
60665;SDS011;59128;44.642;21.188;2023-04-08T11:38:25;29.73;;;25.33;;
60665;SDS011;59128;44.642;21.188;2023-04-08T11:40:55;29.63;;;25.27;;
60665;SDS011;59128;44.642;21.188;2023-04-08T11:43:22;25.20;;;22.63;;
60665;SDS011;59128;44.642;21.188;2023-04-08T11:45:48;18.85;;;16.85;;
60665;SDS011;59128;44.642;21.188;2023-04-08T11:48:15;18.95;;;17.08;;
60665;SDS011;59128;44.642;21.188;2023-04-08T11:50:41;22.95;;;20.55;;
60665;SDS011;59128;44.642;21.188;2023-04-08T11:53:17;25.88;;;22.35;;
60665;SDS011;59128;44.642;21.188;2023-04-08T11:55:43;23.67;;;20.50;;
60665;SDS011;59128;44.642;21.188;2023-04-08T11:58:10;32.85;;;28.02;;
60665;SDS011;59128;44.642;21.188;2023-04-08T12:00:36;24.93;;;22.23;;
60665;SDS011;59128;44.642;21.188;2023-04-08T12:03:02;24.73;;;21.30;;
60665;SDS011;59128;44.642;21.188;2023-04-08T12:05:28;17.30;;;15.60;;
60665;SDS011;59128;44.642;21.188;2023-04-08T12:07:54;21.15;;;18.95;;
60665;SDS011;59128;44.642;21.188;2023-04-08T12:10:20;20.88;;;18.73;;
60665;SDS011;59128;44.642;21.188;2023-04-08T12:12:49;20.27;;;18.27;;
60665;SDS011;59128;44.642;21.188;2023-04-08T12:15:15;24.63;;;21.80;;
60665;SDS011;59128;44.642;21.188;2023-04-08T12:17:41;18.17;;;16.35;;
60665;SDS011;59128;44.642;21.188;2023-04-08T12:20:07;25.33;;;22.63;;
60665;SDS011;59128;44.642;21.188;2023-04-08T12:22:34;26.30;;;23.30;;
60665;SDS011;59128;44.642;21.188;2023-04-08T12:25:00;26.00;;;23.25;;
60665;SDS011;59128;44.642;21.188;2023-04-08T12:27:29;24.63;;;21.98;;
60665;SDS011;59128;44.642;21.188;2023-04-08T12:29:57;23.60;;;21.20;;
60665;SDS011;59128;44.642;21.188;2023-04-08T12:32:23;22.15;;;19.95;;
60665;SDS011;59128;44.642;21.188;2023-04-08T12:34:49;21.40;;;19.23;;
60665;SDS011;59128;44.642;21.188;2023-04-08T12:37:16;22.33;;;20.10;;
60665;SDS011;59128;44.642;21.188;2023-04-08T12:39:42;24.50;;;21.83;;
60665;SDS011;59128;44.642;21.188;2023-04-08T12:42:08;25.05;;;22.45;;
60665;SDS011;59128;44.642;21.188;2023-04-08T12:44:34;17.63;;;15.93;;
60665;SDS011;59128;44.642;21.188;2023-04-08T12:47:00;17.60;;;16.00;;
60665;SDS011;59128;44.642;21.188;2023-04-08T12:49:26;18.38;;;16.67;;
60665;SDS011;59128;44.642;21.188;2023-04-08T12:51:52;19.40;;;17.40;;
60665;SDS011;59128;44.642;21.188;2023-04-08T12:54:19;18.90;;;17.15;;
60665;SDS011;59128;44.642;21.188;2023-04-08T12:56:45;17.48;;;15.88;;
60665;SDS011;59128;44.642;21.188;2023-04-08T12:59:12;16.90;;;15.30;;
60665;SDS011;59128;44.642;21.188;2023-04-08T13:01:38;18.13;;;16.33;;
60665;SDS011;59128;44.642;21.188;2023-04-08T13:04:06;18.50;;;16.70;;
60665;SDS011;59128;44.642;21.188;2023-04-08T13:06:32;20.02;;;18.02;;
60665;SDS011;59128;44.642;21.188;2023-04-08T13:08:58;33.03;;;24.90;;
60665;SDS011;59128;44.642;21.188;2023-04-08T13:11:24;19.13;;;17.20;;
60665;SDS011;59128;44.642;21.188;2023-04-08T13:13:50;16.75;;;15.20;;
60665;SDS011;59128;44.642;21.188;2023-04-08T13:16:16;20.70;;;18.75;;
60665;SDS011;59128;44.642;21.188;2023-04-08T13:18:43;19.13;;;17.33;;
60665;SDS011;59128;44.642;21.188;2023-04-08T13:21:09;20.25;;;18.35;;
60665;SDS011;59128;44.642;21.188;2023-04-08T13:23:35;20.23;;;18.27;;
60665;SDS011;59128;44.642;21.188;2023-04-08T13:26:01;20.13;;;18.15;;
60665;SDS011;59128;44.642;21.188;2023-04-08T13:28:27;19.38;;;17.48;;
60665;SDS011;59128;44.642;21.188;2023-04-08T13:30:53;23.20;;;20.98;;
60665;SDS011;59128;44.642;21.188;2023-04-08T13:33:20;27.13;;;24.23;;
60665;SDS011;59128;44.642;21.188;2023-04-08T13:35:46;23.60;;;21.30;;
60665;SDS011;59128;44.642;21.188;2023-04-08T13:38:12;23.17;;;20.88;;
60665;SDS011;59128;44.642;21.188;2023-04-08T13:40:38;23.08;;;20.67;;
60665;SDS011;59128;44.642;21.188;2023-04-08T13:43:04;32.88;;;29.50;;
60665;SDS011;59128;44.642;21.188;2023-04-08T13:45:30;29.42;;;26.30;;
60665;SDS011;59128;44.642;21.188;2023-04-08T13:47:56;23.30;;;20.83;;
60665;SDS011;59128;44.642;21.188;2023-04-08T13:50:23;25.17;;;22.63;;
60665;SDS011;59128;44.642;21.188;2023-04-08T13:52:49;23.13;;;20.83;;
60665;SDS011;59128;44.642;21.188;2023-04-08T13:55:15;24.70;;;22.20;;
60665;SDS011;59128;44.642;21.188;2023-04-08T13:57:41;29.77;;;26.60;;
60665;SDS011;59128;44.642;21.188;2023-04-08T14:00:08;24.23;;;21.70;;
60665;SDS011;59128;44.642;21.188;2023-04-08T14:02:34;33.10;;;28.73;;
60665;SDS011;59128;44.642;21.188;2023-04-08T14:05:01;22.52;;;20.23;;
60665;SDS011;59128;44.642;21.188;2023-04-08T14:07:27;25.20;;;22.73;;
60665;SDS011;59128;44.642;21.188;2023-04-08T14:09:53;26.80;;;23.92;;
60665;SDS011;59128;44.642;21.188;2023-04-08T14:12:19;24.02;;;21.55;;
60665;SDS011;59128;44.642;21.188;2023-04-08T14:14:45;30.02;;;26.92;;
60665;SDS011;59128;44.642;21.188;2023-04-08T14:17:11;27.60;;;24.65;;
60665;SDS011;59128;44.642;21.188;2023-04-08T14:19:38;39.15;;;34.08;;
60665;SDS011;59128;44.642;21.188;2023-04-08T14:22:04;28.67;;;25.58;;
60665;SDS011;59128;44.642;21.188;2023-04-08T14:24:30;25.65;;;22.13;;
60665;SDS011;59128;44.642;21.188;2023-04-08T14:26:56;21.77;;;19.50;;